createdAt,value
2023-02-20T00:03:12.060Z,0.83
2023-02-20T00:07:16.674Z,0.30
2023-02-20T00:11:20.361Z,0.30
2023-02-20T00:15:25.306Z,0.30
2023-02-20T00:20:20.735Z,0.70
2023-02-20T00:24:24.429Z,0.63
2023-02-20T00:28:27.917Z,0.20
2023-02-20T00:32:32.907Z,0.10
2023-02-20T00:36:38.184Z,0.30
2023-02-20T00:40:43.611Z,0.47
2023-02-20T00:45:16.438Z,0.10
2023-02-20T00:49:25.290Z,0.17
2023-02-20T00:53:28.706Z,0.10
2023-02-20T00:57:32.171Z,0.00
2023-02-20T01:02:01.351Z,0.17
2023-02-20T01:06:11.774Z,0.10
2023-02-20T01:10:15.862Z,0.00
2023-02-20T01:14:23.279Z,0.10
2023-02-20T01:18:26.798Z,0.30
2023-02-20T01:22:49.541Z,0.67
2023-02-20T01:26:53.020Z,0.30
2023-02-20T01:30:56.485Z,0.20
2023-02-20T01:35:50.844Z,0.20
2023-02-20T01:46:46.158Z,0.20
2023-02-20T01:50:51.950Z,0.90
2023-02-20T02:01:19.829Z,0.90
2023-02-20T02:05:26.697Z,0.97
2023-02-20T02:09:58.245Z,1.53
2023-02-20T02:14:12.309Z,1.40
2023-02-20T02:18:54.384Z,2.00
2023-02-20T02:23:48.542Z,2.07
2023-02-20T02:28:38.045Z,3.73
2023-02-20T02:33:10.469Z,2.60
2023-02-20T02:37:24.484Z,2.33
2023-02-20T02:41:43.370Z,2.00
2023-02-20T02:45:54.188Z,1.83
2023-02-20T02:50:03.686Z,2.03
2023-02-20T02:54:33.539Z,2.50
2023-02-20T02:58:41.842Z,1.87
2023-02-20T03:03:08.178Z,2.20
2023-02-20T03:07:40.534Z,0.70
2023-02-20T03:11:48.158Z,1.00
2023-02-20T03:15:59.046Z,0.87
2023-02-20T03:20:06.972Z,1.20
2023-02-20T03:24:16.091Z,1.07
2023-02-20T03:28:26.154Z,0.90
2023-02-20T03:32:50.990Z,1.10
2023-02-20T03:37:21.677Z,1.60
2023-02-20T03:51:12.971Z,2.27
2023-02-20T03:55:28.139Z,1.50
2023-02-20T03:59:42.824Z,1.50
2023-02-20T04:03:51.286Z,2.60
2023-02-20T04:07:59.179Z,1.60
2023-02-20T04:12:19.488Z,3.47
2023-02-20T04:16:27.782Z,2.53
2023-02-20T04:20:33.498Z,3.13
2023-02-20T04:24:59.232Z,2.10
2023-02-20T04:29:11.885Z,1.77
2023-02-20T04:33:30.874Z,2.00
2023-02-20T04:37:41.345Z,3.63
2023-02-20T04:41:49.671Z,2.90
2023-02-20T04:45:53.630Z,3.63
2023-02-20T04:49:58.282Z,2.50
2023-02-20T04:54:04.141Z,2.77
2023-02-20T04:58:28.675Z,3.23
2023-02-20T05:02:40.132Z,2.43
2023-02-20T05:06:46.545Z,2.53
2023-02-20T05:10:51.670Z,3.93
2023-02-20T05:14:55.798Z,2.60
2023-02-20T05:19:18.437Z,2.93
2023-02-20T05:23:21.890Z,3.33
2023-02-20T05:27:28.076Z,3.90
2023-02-20T05:31:57.347Z,3.70
2023-02-20T05:36:00.968Z,2.27
2023-02-20T05:40:05.899Z,3.43
2023-02-20T05:44:10.842Z,3.17
2023-02-20T05:48:14.703Z,2.60
2023-02-20T05:52:39.972Z,3.70
2023-02-20T05:56:43.946Z,3.43
2023-02-20T06:01:06.289Z,3.93
2023-02-20T06:05:10.040Z,4.07
2023-02-20T06:09:16.812Z,4.23
2023-02-20T06:13:22.605Z,4.53
2023-02-20T06:17:27.728Z,4.07
2023-02-20T06:21:58.840Z,5.33
2023-02-20T06:26:26.243Z,6.90
2023-02-20T06:30:29.645Z,4.63
2023-02-20T06:35:11.897Z,3.73
2023-02-20T06:39:17.031Z,4.57
2023-02-20T06:43:20.770Z,5.73
2023-02-20T06:47:27.669Z,4.07
2023-02-20T06:51:34.556Z,4.63
2023-02-20T06:55:39.380Z,4.70
2023-02-20T07:00:01.425Z,4.77
2023-02-20T07:04:05.072Z,4.33
2023-02-20T07:09:02.049Z,6.70
2023-02-20T07:13:06.966Z,5.13
2023-02-20T07:17:23.774Z,5.20
2023-02-20T07:21:27.231Z,4.77
2023-02-20T07:25:30.644Z,4.40
2023-02-20T07:29:41.480Z,7.00
2023-02-20T07:33:45.412Z,4.83
2023-02-20T07:37:48.823Z,5.10
2023-02-20T07:47:28.599Z,4.27
2023-02-20T07:51:32.193Z,3.77
2023-02-20T07:56:18.134Z,5.27
2023-02-20T08:00:24.029Z,6.83
2023-02-20T08:04:29.056Z,5.53
2023-02-20T08:08:32.812Z,5.10
2023-02-20T08:12:36.280Z,4.80
2023-02-20T08:16:40.860Z,2.90
2023-02-20T08:20:45.748Z,4.00
2023-02-20T08:24:49.273Z,4.53
2023-02-20T08:29:09.185Z,4.23
2023-02-20T08:33:12.804Z,4.97
2023-02-20T08:37:21.544Z,5.10
2023-02-20T08:41:25.098Z,3.10
2023-02-20T08:45:28.874Z,4.27
2023-02-20T08:49:58.334Z,7.90
2023-02-20T08:54:29.122Z,6.57
2023-02-20T08:58:32.631Z,5.70
2023-02-20T09:02:36.175Z,5.60
2023-02-20T09:07:07.478Z,6.87
2023-02-20T09:11:12.498Z,4.73
2023-02-20T09:15:38.831Z,5.70
2023-02-20T09:19:42.394Z,5.47
2023-02-20T09:23:48.849Z,6.93
2023-02-20T09:27:53.766Z,4.30
2023-02-20T09:31:57.869Z,3.97
2023-02-20T09:36:59.244Z,3.93
2023-02-20T09:41:02.811Z,5.57
2023-02-20T09:45:15.616Z,4.53
2023-02-20T09:49:34.792Z,3.70
2023-02-20T09:53:43.213Z,1.87
2023-02-20T09:57:51.484Z,3.03
2023-02-20T10:01:59.373Z,4.13
2023-02-20T10:06:12.461Z,5.60
2023-02-20T10:10:41.426Z,4.60
2023-02-20T10:15:04.550Z,2.37
2023-02-20T10:19:35.027Z,2.80
2023-02-20T10:23:53.973Z,3.00
2023-02-20T10:28:10.524Z,3.80
2023-02-20T10:32:34.716Z,2.03
2023-02-20T10:36:55.140Z,3.07
2023-02-20T10:41:12.368Z,3.77
2023-02-20T10:45:21.643Z,1.57
2023-02-20T10:49:33.421Z,2.00
2023-02-20T10:53:44.870Z,3.03
2023-02-20T10:57:51.912Z,4.73
2023-02-20T11:01:59.621Z,2.37
2023-02-20T11:06:05.299Z,2.20
2023-02-20T11:10:11.234Z,1.90
2023-02-20T11:14:17.361Z,1.77
2023-02-20T11:18:28.444Z,6.50
2023-02-20T11:22:43.928Z,2.40
2023-02-20T11:26:52.424Z,3.90
2023-02-20T11:31:08.012Z,3.00
2023-02-20T11:36:01.806Z,2.73
2023-02-20T11:40:06.202Z,2.17
2023-02-20T11:44:37.717Z,3.67
2023-02-20T11:49:02.199Z,3.10
2023-02-20T11:53:08.177Z,1.83
2023-02-20T11:57:26.842Z,2.57
2023-02-20T12:01:33.355Z,1.30
2023-02-20T12:05:42.211Z,2.10
2023-02-20T12:09:49.208Z,3.57
2023-02-20T12:13:54.653Z,3.13
2023-02-20T12:18:45.998Z,3.53
2023-02-20T12:23:11.123Z,2.00
2023-02-20T12:27:53.542Z,3.20
2023-02-20T12:32:09.549Z,2.10
2023-02-20T12:36:28.262Z,2.10
2023-02-20T12:40:44.101Z,2.83
2023-02-20T12:45:23.646Z,2.40
2023-02-20T12:50:04.214Z,2.63
2023-02-20T12:54:27.265Z,3.80
2023-02-20T12:58:43.502Z,2.47
2023-02-20T13:02:50.138Z,2.23
2023-02-20T13:07:06.896Z,1.50
2023-02-20T13:11:19.555Z,2.70
2023-02-20T13:16:04.729Z,1.87
2023-02-20T13:20:17.185Z,1.43
2023-02-20T13:24:47.124Z,4.43
2023-02-20T13:28:53.768Z,2.93
2023-02-20T13:33:14.436Z,2.90
2023-02-20T13:38:02.539Z,2.17
2023-02-20T13:42:27.308Z,3.20
2023-02-20T13:46:59.724Z,1.30
2023-02-20T13:51:32.413Z,4.13
2023-02-20T13:55:37.242Z,3.07
2023-02-20T13:59:51.434Z,2.03
2023-02-20T14:04:29.619Z,3.40
2023-02-20T14:08:37.570Z,2.90
2023-02-20T14:12:41.067Z,2.20
2023-02-20T14:16:45.389Z,1.77
2023-02-20T14:20:51.922Z,2.37
2023-02-20T14:25:33.600Z,2.93
2023-02-20T14:29:37.719Z,2.40
2023-02-20T14:33:41.363Z,2.20
2023-02-20T14:38:36.856Z,2.03
2023-02-20T14:42:46.588Z,2.03
2023-02-20T14:46:54.274Z,1.77
2023-02-20T14:51:18.924Z,2.70
2023-02-20T14:55:22.390Z,3.43
2023-02-20T14:59:33.300Z,3.70
2023-02-20T15:03:36.903Z,1.33
2023-02-20T15:07:41.863Z,1.93
2023-02-20T15:11:52.437Z,2.63
2023-02-20T15:16:22.161Z,2.03
2023-02-20T15:20:41.932Z,2.23
2023-02-20T15:24:45.396Z,2.60
2023-02-20T15:29:56.369Z,3.37
2023-02-20T15:34:01.347Z,2.53
2023-02-20T15:38:09.476Z,3.20
2023-02-20T15:42:29.540Z,3.53
2023-02-20T15:46:32.912Z,3.67
2023-02-20T15:50:38.041Z,1.67
2023-02-20T15:55:06.350Z,3.17
2023-02-20T15:59:17.090Z,2.00
2023-02-20T16:03:20.863Z,4.83
2023-02-20T16:07:25.948Z,4.27
2023-02-20T16:11:38.638Z,1.60
2023-02-20T16:15:42.347Z,2.57
2023-02-20T16:20:15.595Z,2.07
2023-02-20T16:24:22.016Z,3.50
2023-02-20T16:28:25.529Z,3.73
2023-02-20T16:32:30.411Z,0.90
2023-02-20T16:36:34.944Z,2.20
2023-02-20T16:40:40.115Z,1.93
2023-02-20T16:44:47.033Z,1.87
2023-02-20T16:48:51.257Z,4.63
2023-02-20T16:52:55.698Z,1.93
2023-02-20T16:57:14.195Z,2.20
2023-02-20T17:01:18.195Z,2.10
2023-02-20T17:05:23.366Z,1.73
2023-02-20T17:09:52.288Z,1.87
2023-02-20T17:13:57.314Z,4.03
2023-02-20T17:18:00.785Z,1.67
2023-02-20T17:22:04.822Z,3.43
2023-02-20T17:26:11.932Z,2.43
2023-02-20T17:30:30.160Z,2.10
2023-02-20T17:34:33.621Z,1.10
2023-02-20T17:39:26.907Z,2.57
2023-02-20T17:44:19.704Z,2.47
2023-02-20T17:48:50.663Z,2.97
2023-02-20T17:52:55.511Z,2.40
2023-02-20T17:57:05.440Z,2.37
2023-02-20T18:01:08.908Z,1.63
2023-02-20T18:05:14.066Z,2.47
2023-02-20T18:09:42.161Z,1.70
2023-02-20T18:13:46.305Z,3.83
2023-02-20T18:19:06.550Z,2.40
2023-02-20T18:23:11.630Z,2.33
2023-02-20T18:27:15.152Z,1.67
2023-02-20T18:31:27.842Z,1.80
2023-02-20T18:35:31.290Z,0.97
2023-02-20T18:39:44.173Z,1.37
2023-02-20T18:43:48.052Z,2.87
2023-02-20T18:47:52.021Z,2.10
2023-02-20T18:52:22.861Z,1.53
2023-02-20T18:56:36.564Z,2.23
2023-02-20T19:00:40.967Z,1.13
2023-02-20T19:05:12.402Z,1.53
2023-02-20T19:09:41.316Z,1.47
2023-02-20T19:13:46.264Z,2.67
2023-02-20T19:17:50.578Z,1.30
2023-02-20T19:22:02.919Z,1.53
2023-02-20T19:26:07.181Z,2.07
2023-02-20T19:30:13.479Z,2.53
2023-02-20T19:34:17.304Z,1.27
2023-02-20T19:38:20.882Z,1.20
2023-02-20T19:42:27.127Z,2.00
2023-02-20T19:46:35.678Z,0.67
2023-02-20T19:50:39.124Z,2.00
2023-02-20T19:54:45.993Z,2.00
2023-02-20T19:59:39.776Z,1.20
2023-02-20T20:03:46.907Z,0.63
2023-02-20T20:08:43.685Z,0.80
2023-02-20T20:13:00.803Z,1.70
2023-02-20T20:17:04.336Z,1.27
2023-02-20T20:21:09.223Z,3.60
2023-02-20T20:25:13.902Z,1.23
2023-02-20T20:29:17.334Z,1.40
2023-02-20T20:33:20.858Z,0.43
2023-02-20T20:37:29.131Z,3.10
2023-02-20T20:41:44.059Z,1.80
2023-02-20T20:45:49.437Z,2.13
2023-02-20T20:49:53.133Z,0.80
2023-02-20T20:53:58.746Z,1.93
2023-02-20T20:58:02.197Z,1.30
2023-02-20T21:02:06.832Z,1.70
2023-02-20T21:06:10.340Z,0.70
2023-02-20T21:22:27.328Z,0.83
2023-02-20T21:26:31.058Z,2.93
2023-02-20T21:30:34.791Z,1.90
2023-02-20T21:34:40.403Z,2.70
2023-02-20T21:38:45.568Z,2.30
2023-02-20T21:43:07.826Z,1.13
2023-02-20T21:47:12.387Z,0.30
2023-02-20T21:51:22.209Z,1.67
2023-02-20T21:55:27.389Z,0.83
2023-02-20T21:59:33.721Z,2.30
2023-02-20T22:03:35.812Z,1.87
2023-02-20T22:18:56.134Z,0.70
2023-02-20T22:23:19.523Z,1.40
2023-02-20T22:32:57.652Z,0.90
2023-02-20T22:37:18.844Z,1.33
2023-02-20T22:51:50.254Z,1.43
2023-02-20T22:56:11.215Z,2.10
2023-02-20T23:00:57.483Z,0.83
2023-02-20T23:05:18.316Z,1.23
2023-02-20T23:09:45.572Z,1.27
2023-02-20T23:14:06.415Z,1.27
2023-02-20T23:24:09.082Z,0.97
2023-02-20T23:28:36.932Z,1.13
2023-02-20T23:32:59.665Z,2.13
2023-02-20T23:37:20.461Z,5.73
2023-02-20T23:41:45.014Z,1.00
2023-02-20T23:46:07.002Z,1.77
2023-02-20T23:50:29.130Z,1.20
2023-02-20T23:54:49.920Z,1.27
